Terminal Aerodrome Forecast
Issued by NWS

Home | Current Version | Previous Version | Text Only | Print | Product List | Glossary On
Versions: 1 2 3 4 5 6 7 8 9 10 11 12 13 14 15 16 17
467
FTUS44 KTSA 141733
TAFXNA
TAF
KXNA 141733Z 1418/1518 21004KT P6SM OVC015
      TEMPO 1418/1421 4SM -DZ
     FM142100 22003KT P6SM OVC025
     FM150300 00000KT 5SM BR SCT250
      TEMPO 1505/1509 3SM BR
     FM150900 00000KT 5SM BR OVC110=

USA.gov is the U.S. government's official web portal to all federal, state and local government web resources and services.